createdAt,value
2023-03-23T02:00:15.554Z,92411.00
2023-03-23T02:04:15.591Z,92411.00
2023-03-23T02:08:15.658Z,92409.00
2023-03-23T02:12:15.648Z,92411.00
2023-03-23T02:16:15.698Z,92409.00
2023-03-23T02:20:15.755Z,92401.00
2023-03-23T02:24:15.861Z,92403.00
2023-03-23T02:28:15.868Z,92401.00
2023-03-23T02:32:15.864Z,92403.00
2023-03-23T02:36:15.857Z,92407.00
2023-03-23T02:40:15.848Z,92403.00
2023-03-23T02:44:15.833Z,92399.00
2023-03-23T02:48:15.816Z,92391.00
2023-03-23T02:52:15.799Z,92393.00
2023-03-23T02:56:15.785Z,92391.00
2023-03-23T03:00:15.960Z,92389.00
2023-03-23T03:04:15.748Z,92391.00
2023-03-23T03:08:15.736Z,92389.00
2023-03-23T03:12:15.696Z,92393.00
2023-03-23T03:16:15.663Z,92401.00
2023-03-23T03:20:15.641Z,92405.00
2023-03-23T03:24:15.618Z,92401.00
2023-03-23T03:28:15.612Z,92403.00
2023-03-23T03:32:15.983Z,92407.00
2023-03-23T03:36:15.637Z,92412.00
2023-03-23T03:40:15.853Z,92411.00
2023-03-23T03:44:15.935Z,92422.00
2023-03-23T03:48:16.498Z,92430.00
2023-03-23T03:52:16.297Z,92428.00
2023-03-23T03:56:16.446Z,92430.00
2023-03-23T04:00:16.639Z,92434.00
2023-03-23T04:04:16.798Z,92440.00
2023-03-23T04:08:16.916Z,92434.00
2023-03-23T04:12:17.059Z,92444.00
2023-03-23T04:16:17.176Z,92448.00
2023-03-23T04:20:17.280Z,92442.00
2023-03-23T04:24:23.242Z,92448.00
2023-03-23T04:28:18.309Z,92452.00
2023-03-23T04:32:17.220Z,92446.00
2023-03-23T04:36:17.237Z,92442.00
2023-03-23T04:40:17.230Z,92438.00
2023-03-23T04:44:17.152Z,92448.00
2023-03-23T04:48:17.139Z,92452.00
2023-03-23T04:52:17.090Z,92450.00
2023-03-23T04:56:17.051Z,92454.00
2023-03-23T05:00:17.019Z,92459.00
2023-03-23T05:04:16.988Z,92459.00
2023-03-23T05:08:16.954Z,92465.00
2023-03-23T05:12:16.915Z,92469.00
2023-03-23T05:16:17.031Z,92467.00
2023-03-23T05:20:16.875Z,92471.00
2023-03-23T05:24:16.868Z,92467.00
2023-03-23T05:28:16.864Z,92471.00
2023-03-23T05:32:16.863Z,92469.00
2023-03-23T05:36:16.841Z,92471.00
2023-03-23T05:40:16.830Z,92454.00
2023-03-23T05:44:16.801Z,92450.00
2023-03-23T05:48:16.795Z,92448.00
2023-03-23T05:52:16.806Z,92459.00
2023-03-23T05:56:16.849Z,92475.00
2023-03-23T06:00:16.767Z,92477.00
2023-03-23T06:04:16.772Z,92479.00
2023-03-23T06:08:16.805Z,92479.00
2023-03-23T06:12:16.828Z,92463.00
2023-03-23T06:16:16.856Z,92461.00
2023-03-23T06:20:16.884Z,92461.00
2023-03-23T06:24:16.915Z,92461.00
2023-03-23T06:28:16.966Z,92458.00
2023-03-23T06:32:17.037Z,92463.00
2023-03-23T06:36:17.055Z,92459.00
2023-03-23T06:40:17.143Z,92458.00
2023-03-23T06:44:17.112Z,92456.00
2023-03-23T06:48:17.079Z,92463.00
2023-03-23T06:52:17.025Z,92465.00
2023-03-23T06:56:16.989Z,92459.00
2023-03-23T07:00:16.930Z,92454.00
2023-03-23T07:04:16.880Z,92452.00
2023-03-23T07:08:16.832Z,92458.00
2023-03-23T07:12:16.790Z,92461.00
2023-03-23T07:16:18.508Z,92469.00
2023-03-23T07:20:16.836Z,92469.00
2023-03-23T07:24:16.913Z,92475.00
2023-03-23T07:28:17.037Z,92467.00
2023-03-23T07:32:17.181Z,92475.00
2023-03-23T07:36:17.365Z,92485.00
2023-03-23T07:40:17.395Z,92487.00
2023-03-23T07:44:17.432Z,92481.00
2023-03-23T07:48:21.445Z,92477.00
2023-03-23T07:52:17.504Z,92475.00
2023-03-23T07:56:17.481Z,92483.00
2023-03-23T08:00:17.452Z,92487.00
2023-03-23T08:04:17.417Z,92485.00
2023-03-23T08:08:17.382Z,92483.00
2023-03-23T08:12:17.346Z,92485.00
2023-03-23T08:16:17.294Z,92483.00
2023-03-23T08:20:17.293Z,92481.00
2023-03-23T08:24:17.233Z,92481.00
2023-03-23T08:28:17.200Z,92479.00
2023-03-23T08:32:17.186Z,92475.00
2023-03-23T08:36:17.170Z,92479.00
2023-03-23T08:40:18.286Z,92469.00
2023-03-23T08:44:17.011Z,92471.00
2023-03-23T08:48:17.185Z,92479.00
2023-03-23T08:52:18.017Z,92485.00
2023-03-23T08:56:17.504Z,92481.00
2023-03-23T09:00:17.768Z,92479.00
2023-03-23T09:04:17.726Z,92479.00
2023-03-23T09:08:17.837Z,92479.00
2023-03-23T09:12:17.980Z,92473.00
2023-03-23T09:16:18.166Z,92471.00
2023-03-23T09:20:18.200Z,92465.00
2023-03-23T09:24:18.299Z,92461.00
2023-03-23T09:28:18.395Z,92454.00
2023-03-23T09:32:18.529Z,92448.00
2023-03-23T09:36:18.675Z,92452.00
2023-03-23T09:40:19.116Z,92440.00
2023-03-23T09:44:18.879Z,92430.00
2023-03-23T09:48:18.954Z,92428.00
2023-03-23T09:52:18.905Z,92424.00
2023-03-23T09:56:18.913Z,92426.00
2023-03-23T10:00:18.799Z,92428.00
2023-03-23T10:04:18.718Z,92430.00
2023-03-23T10:08:18.688Z,92426.00
2023-03-23T10:12:19.146Z,92430.00
2023-03-23T10:16:18.539Z,92428.00
2023-03-23T10:20:18.473Z,92420.00
2023-03-23T10:24:18.412Z,92414.00
2023-03-23T10:28:18.355Z,92418.00
2023-03-23T10:32:19.059Z,92422.00
2023-03-23T10:36:18.258Z,92422.00
2023-03-23T10:40:18.123Z,92426.00
2023-03-23T10:44:18.054Z,92426.00
2023-03-23T10:48:17.964Z,92432.00
2023-03-23T10:52:17.894Z,92426.00
2023-03-23T10:56:17.820Z,92428.00
2023-03-23T11:00:17.742Z,92428.00
2023-03-23T11:04:17.649Z,92424.00
2023-03-23T11:08:17.642Z,92422.00
2023-03-23T11:12:19.398Z,92422.00
2023-03-23T11:16:17.462Z,92418.00
2023-03-23T11:20:17.398Z,92405.00
2023-03-23T11:24:17.334Z,92399.00
2023-03-23T11:28:17.269Z,92395.00
2023-03-23T11:32:17.193Z,92387.00
2023-03-23T11:36:17.297Z,92387.00
2023-03-23T11:40:17.415Z,92383.00
2023-03-23T11:44:17.536Z,92387.00
2023-03-23T11:48:17.676Z,92379.00
2023-03-23T11:52:17.848Z,92379.00
2023-03-23T11:56:17.985Z,92371.00
2023-03-23T12:00:18.141Z,92367.00
2023-03-23T12:04:18.331Z,92367.00
2023-03-23T12:12:18.692Z,92348.00
2023-03-23T12:16:18.896Z,92340.00
2023-03-23T12:20:19.074Z,92338.00
2023-03-23T12:24:19.268Z,92319.00
2023-03-23T12:28:19.538Z,92303.00
2023-03-23T12:32:19.696Z,92297.00
2023-03-23T12:36:19.951Z,92281.00
2023-03-23T12:40:20.136Z,92268.00
2023-03-23T12:44:19.864Z,92254.00
2023-03-23T12:48:19.815Z,92244.00
2023-03-23T12:52:19.757Z,92238.00
2023-03-23T12:56:19.708Z,92244.00
2023-03-23T13:00:19.666Z,92240.00
2023-03-23T13:04:19.612Z,92236.00
2023-03-23T13:08:19.578Z,92221.00
2023-03-23T13:12:19.519Z,92221.00
2023-03-23T13:16:19.474Z,92219.00
2023-03-23T13:20:19.427Z,92207.00
2023-03-23T13:24:19.373Z,92205.00
2023-03-23T13:28:19.327Z,92201.00
2023-03-23T13:32:19.281Z,92197.00
2023-03-23T13:36:19.397Z,92191.00
2023-03-23T13:40:19.587Z,92183.00
2023-03-23T13:44:19.789Z,92179.00
2023-03-23T13:48:19.988Z,92178.00
2023-03-23T13:52:19.934Z,92172.00
2023-03-23T13:56:19.893Z,92164.00
2023-03-23T14:00:19.862Z,92158.00
2023-03-23T14:04:19.832Z,92150.00
2023-03-23T14:08:19.809Z,92144.00
2023-03-23T14:12:19.785Z,92134.00
2023-03-23T14:16:19.784Z,92131.00
2023-03-23T14:20:19.696Z,92131.00
2023-03-23T14:24:19.667Z,92129.00
2023-03-23T14:28:19.730Z,92125.00
2023-03-23T14:32:19.600Z,92125.00
2023-03-23T14:36:19.583Z,92121.00
2023-03-23T14:40:19.554Z,92119.00
2023-03-23T14:44:19.671Z,92123.00
2023-03-23T14:48:19.794Z,92123.00
2023-03-23T14:52:20.005Z,92127.00
2023-03-23T14:56:20.051Z,92127.00
2023-03-23T15:00:20.185Z,92119.00
2023-03-23T15:04:20.399Z,92115.00
2023-03-23T15:08:20.740Z,92113.00
2023-03-23T15:12:20.605Z,92117.00
2023-03-23T15:16:20.731Z,92119.00
2023-03-23T15:20:20.866Z,92119.00
2023-03-23T15:24:21.072Z,92121.00
2023-03-23T15:28:21.246Z,92119.00
2023-03-23T15:32:20.980Z,92119.00
2023-03-23T15:36:20.935Z,92113.00
2023-03-23T15:40:20.879Z,92121.00
2023-03-23T15:44:20.840Z,92121.00
2023-03-23T15:48:21.030Z,92119.00
2023-03-23T15:52:20.975Z,92121.00
2023-03-23T15:56:20.928Z,92121.00
2023-03-23T16:00:20.954Z,92127.00
2023-03-23T16:04:20.828Z,92125.00
2023-03-23T16:08:20.778Z,92129.00
2023-03-23T16:12:20.724Z,92136.00
2023-03-23T16:16:20.818Z,92142.00
2023-03-23T16:20:20.648Z,92140.00
2023-03-23T16:24:20.585Z,92140.00
2023-03-23T16:28:20.739Z,92144.00
2023-03-23T16:32:20.698Z,92152.00
2023-03-23T16:36:20.697Z,92158.00
2023-03-23T16:40:20.631Z,92158.00
2023-03-23T16:44:20.548Z,92158.00
2023-03-23T16:48:21.275Z,92158.00
2023-03-23T16:52:20.494Z,92164.00
2023-03-23T16:56:20.786Z,92168.00
2023-03-23T17:00:20.455Z,92176.00
2023-03-23T17:04:20.419Z,92181.00
2023-03-23T17:08:20.571Z,92191.00
2023-03-23T17:12:20.677Z,92201.00
2023-03-23T17:16:20.580Z,92207.00
2023-03-23T17:20:20.789Z,92201.00
2023-03-23T17:24:20.533Z,92203.00
2023-03-23T17:28:21.103Z,92207.00
2023-03-23T17:32:20.489Z,92205.00
2023-03-23T17:36:20.563Z,92209.00
2023-03-23T17:40:20.456Z,92213.00
2023-03-23T17:44:20.422Z,92215.00
2023-03-23T17:48:20.465Z,92223.00
2023-03-23T17:52:20.649Z,92230.00
2023-03-23T17:56:20.846Z,92238.00
2023-03-23T18:00:21.028Z,92244.00
2023-03-23T18:04:21.220Z,92248.00
2023-03-23T18:08:21.417Z,92258.00
2023-03-23T18:12:21.808Z,92268.00
2023-03-23T18:16:21.814Z,92276.00
2023-03-23T18:20:21.960Z,92283.00
2023-03-23T18:24:22.164Z,92293.00
2023-03-23T18:28:22.344Z,92297.00
2023-03-23T18:32:22.537Z,92303.00
2023-03-23T18:36:22.726Z,92293.00
2023-03-23T18:40:22.933Z,92295.00
2023-03-23T18:44:23.162Z,92301.00
2023-03-23T18:48:23.822Z,92307.00
2023-03-23T18:52:23.525Z,92311.00
2023-03-23T18:56:23.715Z,92317.00
2023-03-23T19:00:23.944Z,92323.00
2023-03-23T19:04:24.144Z,92325.00
2023-03-23T19:08:24.312Z,92327.00
2023-03-23T19:12:24.525Z,92338.00
2023-03-23T19:16:24.707Z,92338.00
2023-03-23T19:20:54.860Z,92342.00
2023-03-23T19:24:25.777Z,92348.00
2023-03-23T19:32:25.722Z,92352.00
2023-03-23T19:36:24.773Z,92360.00
2023-03-23T19:40:39.592Z,92367.00
2023-03-23T19:44:25.823Z,92371.00
2023-03-23T19:48:24.795Z,92377.00
2023-03-23T19:52:25.065Z,92375.00
2023-03-23T19:56:25.464Z,92373.00
2023-03-23T20:00:25.184Z,92369.00
2023-03-23T20:04:25.812Z,92365.00
2023-03-23T20:08:25.445Z,92360.00
2023-03-23T20:12:25.586Z,92354.00
2023-03-23T20:16:25.714Z,92358.00
2023-03-23T20:20:25.861Z,92362.00
2023-03-23T20:24:25.883Z,92371.00
2023-03-23T20:28:25.985Z,92375.00
2023-03-23T20:32:26.291Z,92373.00
2023-03-23T20:36:26.318Z,92367.00
2023-03-23T20:40:26.398Z,92358.00
2023-03-23T20:44:26.465Z,92354.00
2023-03-23T20:48:26.572Z,92364.00
2023-03-23T20:52:26.685Z,92371.00
2023-03-23T20:56:26.872Z,92369.00
2023-03-23T21:00:26.972Z,92375.00
2023-03-23T21:04:27.846Z,92383.00
2023-03-23T21:08:27.282Z,92375.00
2023-03-23T21:12:27.498Z,92375.00
2023-03-23T21:16:27.524Z,92373.00
2023-03-23T21:20:27.600Z,92369.00
2023-03-23T21:24:27.766Z,92375.00
2023-03-23T21:28:27.863Z,92379.00
2023-03-23T21:32:27.979Z,92375.00
2023-03-23T21:36:28.023Z,92375.00
2023-03-23T21:40:28.051Z,92373.00
2023-03-23T21:44:28.068Z,92373.00
2023-03-23T21:48:28.388Z,92373.00
2023-03-23T21:52:28.180Z,92373.00
2023-03-23T21:56:28.257Z,92371.00
2023-03-23T22:00:28.248Z,92371.00
2023-03-23T22:04:28.314Z,92365.00
2023-03-23T22:08:28.259Z,92367.00
2023-03-23T22:12:28.255Z,92367.00
2023-03-23T22:16:28.380Z,92365.00
2023-03-23T22:20:28.284Z,92360.00
2023-03-23T22:24:28.312Z,92362.00
2023-03-23T22:28:28.408Z,92362.00
2023-03-23T22:32:28.426Z,92362.00
2023-03-23T22:36:28.364Z,92362.00
2023-03-23T22:40:28.364Z,92356.00
2023-03-23T22:44:28.930Z,92362.00
2023-03-23T22:48:28.321Z,92354.00
2023-03-23T22:52:28.418Z,92348.00
2023-03-23T22:56:28.313Z,92346.00
2023-03-23T23:00:28.277Z,92346.00
2023-03-23T23:04:28.329Z,92342.00
2023-03-23T23:08:28.322Z,92340.00
2023-03-23T23:12:28.311Z,92342.00
2023-03-23T23:16:28.382Z,92340.00
2023-03-23T23:20:28.528Z,92340.00
2023-03-23T23:24:28.762Z,92336.00
2023-03-23T23:28:28.993Z,92340.00
2023-03-23T23:32:29.318Z,92340.00
2023-03-23T23:36:29.496Z,92346.00
2023-03-23T23:40:29.636Z,92344.00
2023-03-23T23:44:29.644Z,92340.00
2023-03-23T23:48:29.653Z,92338.00
2023-03-23T23:52:29.650Z,92338.00
2023-03-23T23:56:29.707Z,92327.00
